»·PEaware :: N6684B KRNO-KSNA

N6684B :: KRNO-KSNA

FLIGHT INFORMATION

Flight Status: Arrived
Operator: Privately registered:
United States
More flights under this callsign
Pilot: Jim P. (2486)
Aircraft: BEECH AIRCRAFT SUPER KING AIR COMMUTER
(BE20)
More flights by this aircraft type
Origin: KRNO Reno/Tahoe Intl
United States
Destination: KSNA John Wayne-Orange Co
United States
More flights between these airports :: More routes between these airports
Route: +VISTA2 FMG FRA V459 SLI
File this flight plan on PilotEdge
Remarks: RMK / SIMBRIEF
Altitude:
(Current/Filed)
23,000ft
Speed:
(Current/Filed)
281kts
Departed: 20-May-20 02:23 PM
Arrived: 20-May-20 03:50 PM
Distance/Time
Traveled:
362nm/1:27
Distance/Time
To Go:
Arrived

Flight Plot

Page will automatically refresh every two minutes.


Map Options




Map Legend


Flown Route
Filed Route
Departure Airport
Arrival Airport
Navaid (VOR, NDB)
Fix

Horizontal Profiles

Position Reports

Time Latitude Longitude Heading Altitude Ground
Speed
20-May-20 13:39 39.501077 -119.764209 90 4419ft 0kts
20-May-20 13:40 39.501077 -119.764209 90 4419ft 0kts
20-May-20 13:41 39.501077 -119.764209 90 4419ft 0kts
20-May-20 13:42 39.501077 -119.764209 90 4419ft 0kts
20-May-20 13:43 39.501077 -119.764209 90 4419ft 0kts
20-May-20 13:44 39.501077 -119.764208 90 4419ft 0kts
20-May-20 13:45 39.501077 -119.764205 90 4419ft 0kts
20-May-20 13:46 39.501077 -119.764202 90 4419ft 0kts
20-May-20 13:47 39.501077 -119.764198 90 4419ft 0kts
20-May-20 13:48 39.501077 -119.764195 90 4419ft 0kts
20-May-20 13:49 39.501077 -119.764191 90 4419ft 0kts
20-May-20 13:50 39.501077 -119.764187 90 4419ft 0kts
20-May-20 13:51 39.501077 -119.764184 90 4419ft 0kts
20-May-20 13:52 39.501077 -119.764180 89 4419ft 0kts
20-May-20 13:53 39.501077 -119.764176 89 4419ft 0kts
20-May-20 13:54 39.501077 -119.764173 89 4419ft 0kts
20-May-20 13:55 39.501077 -119.764169 89 4419ft 0kts
20-May-20 13:56 39.501077 -119.764166 89 4419ft 0kts
20-May-20 13:57 39.501077 -119.764162 89 4419ft 0kts
20-May-20 13:58 39.501077 -119.764158 89 4419ft 0kts
20-May-20 13:59 39.501077 -119.764155 89 4419ft 0kts
20-May-20 14:00 39.501077 -119.764151 89 4419ft 0kts
20-May-20 14:01 39.501077 -119.764148 89 4419ft 0kts
20-May-20 14:02 39.501077 -119.764144 89 4419ft 0kts
20-May-20 14:03 39.501077 -119.764247 90 4419ft 0kts
20-May-20 14:04 39.501077 -119.764243 90 4419ft 0kts
20-May-20 14:05 39.501077 -119.764240 90 4419ft 0kts
20-May-20 14:06 39.501077 -119.764236 90 4419ft 0kts
20-May-20 14:07 39.501077 -119.764232 90 4419ft 0kts
20-May-20 14:08 39.501077 -119.764227 90 4419ft 0kts
20-May-20 14:09 39.501077 -119.764223 90 4419ft 0kts
20-May-20 14:10 39.501077 -119.764219 90 4419ft 0kts
20-May-20 14:11 39.501077 -119.764214 90 4419ft 0kts
20-May-20 14:12 39.501077 -119.764210 90 4419ft 0kts
20-May-20 14:13 39.501077 -119.764206 89 4419ft 0kts
20-May-20 14:14 39.501077 -119.764201 89 4419ft 0kts
20-May-20 14:15 39.501000 -119.764110 168 4419ft 0kts
20-May-20 14:16 39.500892 -119.764383 264 4419ft 5kts
20-May-20 14:17 39.498182 -119.765220 179 4419ft 10kts
20-May-20 14:18 39.497834 -119.763180 89 4419ft 10kts
20-May-20 14:19 39.497792 -119.759180 86 4419ft 18kts
20-May-20 14:20 39.496886 -119.757610 178 4419ft 0kts
20-May-20 14:21 39.496227 -119.757939 266 4419ft 0kts
20-May-20 14:22 39.496271 -119.774870 269 4573ft 124kts
20-May-20 14:23 39.517238 -119.819710 347 6413ft 191kts
20-May-20 14:24 39.537855 -119.772315 132 8977ft 189kts
20-May-20 14:25 39.489161 -119.760176 177 11880ft 180kts
20-May-20 14:26 39.434428 -119.752174 177 14419ft 207kts
20-May-20 14:27 39.376293 -119.744088 176 16926ft 213kts
20-May-20 14:28 39.315927 -119.733183 173 19101ft 239kts
20-May-20 14:30 39.248010 -119.720205 174 21077ft 249kts
20-May-20 14:31 39.180267 -119.712433 182 23059ft 258kts
20-May-20 14:32 39.100830 -119.709325 181 23163ft 306kts
20-May-20 14:33 39.012943 -119.704684 181 23178ft 323kts
20-May-20 14:34 38.922146 -119.699434 181 23180ft 327kts
20-May-20 14:35 38.831057 -119.694089 181 23179ft 329kts
20-May-20 14:36 38.739264 -119.688699 181 23175ft 329kts
20-May-20 14:37 38.647695 -119.683340 181 23172ft 330kts
20-May-20 14:38 38.555788 -119.677978 181 23172ft 330kts
20-May-20 14:39 38.463933 -119.672642 182 23177ft 331kts
20-May-20 14:40 38.371941 -119.667306 182 23194ft 331kts
20-May-20 14:41 38.279868 -119.661992 182 23192ft 330kts
20-May-20 14:42 38.187910 -119.656692 182 23188ft 330kts
20-May-20 14:43 38.095999 -119.651420 182 23189ft 330kts
20-May-20 14:44 38.004474 -119.646164 182 23187ft 330kts
20-May-20 14:45 37.912487 -119.640880 182 23181ft 330kts
20-May-20 14:46 37.820444 -119.635611 182 23183ft 330kts
20-May-20 14:46 37.743775 -119.631236 182 23181ft 330kts
20-May-20 14:48 37.636487 -119.625136 183 23179ft 330kts
20-May-20 14:48 37.560086 -119.620841 183 23180ft 330kts
20-May-20 14:49 37.468505 -119.615643 183 23176ft 330kts
20-May-20 14:51 37.361508 -119.609610 183 23176ft 329kts
20-May-20 14:51 37.285347 -119.605361 183 23175ft 329kts
20-May-20 14:52 37.193737 -119.600267 183 23164ft 328kts
20-May-20 14:53 37.102569 -119.594965 179 23162ft 330kts
20-May-20 14:54 37.014384 -119.557439 159 23162ft 338kts
20-May-20 14:55 36.928001 -119.510614 161 23162ft 337kts
20-May-20 14:56 36.840828 -119.466556 162 23162ft 337kts
20-May-20 14:57 36.753335 -119.423872 163 23161ft 337kts
20-May-20 14:58 36.665796 -119.381461 163 23159ft 337kts
20-May-20 14:59 36.578685 -119.339310 163 23161ft 336kts
20-May-20 15:00 36.491089 -119.297044 163 23161ft 336kts
20-May-20 15:01 36.403707 -119.254979 163 23160ft 337kts
20-May-20 15:02 36.316378 -119.213090 163 23162ft 336kts
20-May-20 15:03 36.228936 -119.171133 163 23159ft 336kts
20-May-20 15:04 36.141666 -119.129380 163 23159ft 336kts
20-May-20 15:05 36.054486 -119.087837 164 23160ft 336kts
20-May-20 15:06 35.966882 -119.046170 164 23159ft 336kts
20-May-20 15:07 35.879111 -119.007273 169 23160ft 333kts
20-May-20 15:08 35.790154 -118.974988 170 23158ft 332kts
20-May-20 15:09 35.703854 -118.943963 170 23157ft 331kts
20-May-20 15:10 35.615505 -118.911977 170 23154ft 331kts
20-May-20 15:11 35.529203 -118.880667 170 23153ft 331kts
20-May-20 15:12 35.441254 -118.848643 170 23154ft 330kts
20-May-20 15:13 35.352757 -118.816430 170 23156ft 328kts
20-May-20 15:14 35.265134 -118.784721 169 22294ft 333kts
20-May-20 15:15 35.175751 -118.752479 169 21094ft 334kts
20-May-20 15:16 35.086883 -118.720867 169 19896ft 332kts
20-May-20 15:17 34.998540 -118.689486 168 18695ft 329kts
20-May-20 15:18 34.911180 -118.658234 168 17495ft 325kts
20-May-20 15:19 34.824551 -118.627330 167 16289ft 321kts
20-May-20 15:20 34.739490 -118.597055 167 15090ft 316kts
20-May-20 15:21 34.656564 -118.564126 157 14124ft 307kts
20-May-20 15:22 34.584039 -118.519796 156 14039ft 293kts
20-May-20 15:23 34.511402 -118.476224 156 14014ft 289kts
20-May-20 15:24 34.438795 -118.433995 156 13992ft 289kts
20-May-20 15:25 34.363037 -118.390093 156 12501ft 316kts
20-May-20 15:26 34.284122 -118.343825 154 10503ft 313kts
20-May-20 15:27 34.213870 -118.303058 154 9037ft 244kts
20-May-20 15:28 34.147897 -118.264854 154 9002ft 270kts
20-May-20 15:29 34.083103 -118.227376 154 9010ft 268kts
20-May-20 15:30 34.018108 -118.189899 154 9012ft 269kts
20-May-20 15:31 33.944954 -118.174981 181 8146ft 263kts
20-May-20 15:32 33.875480 -118.177901 182 7051ft 251kts
20-May-20 15:33 33.803995 -118.181415 182 7017ft 258kts
20-May-20 15:34 33.731240 -118.185023 182 6911ft 263kts
20-May-20 15:35 33.655173 -118.188817 182 5218ft 256kts
20-May-20 15:36 33.592634 -118.191673 182 5014ft 220kts
20-May-20 15:37 33.534522 -118.187671 148 5019ft 222kts
20-May-20 15:38 33.534056 -118.128601 40 5026ft 221kts
20-May-20 15:39 33.582155 -118.086029 33 4997ft 198kts
20-May-20 15:40 33.627923 -118.047738 33 4998ft 206kts
20-May-20 15:41 33.673605 -118.008659 38 4622ft 174kts
20-May-20 15:42 33.703206 -117.973742 45 2650ft 162kts
20-May-20 15:43 33.710126 -117.932848 135 1326ft 121kts
20-May-20 15:44 33.689349 -117.900023 122 1265ft 129kts
20-May-20 15:45 33.671678 -117.861342 112 1246ft 155kts
20-May-20 15:46 33.698396 -117.829611 24 2066ft 120kts
20-May-20 15:47 33.707952 -117.843919 223 1119ft 81kts
20-May-20 15:48 33.687993 -117.859168 212 304ft 96kts
20-May-20 15:49 33.674224 -117.867816 178 60ft 12kts
20-May-20 15:50 33.673018 -117.867183 231 60ft 6kts
20-May-20 15:51 33.670106 -117.869832 221 60ft 17kts
20-May-20 15:52 33.667281 -117.872153 130 60ft 2kts
20-May-20 15:53 33.667079 -117.871887 127 60ft 0kts

Navigation Log

Ident Type
Flight plan parsing failed, navigation log unavailable